Aeroboteco Virtual Airlines! Uma nuvem a frente.



 INFORMAÇÕES METEOROLÓGICAS
METAR FOR SBCX
ADDS - METARS form results

(2133 UTC 23 May 2019)
Data provider http://aviationweather.gov/metar/data/
 
METAR text: SBCX 232100Z 18004KT 5000 1500S BCFG BR SCT002 OVC005 14/13 Q1016
Conditions at: SBCX (CAXIAS DO SUL , BR) observed 2100 UTC 23 May 2019
Temperature: 14.0°C (57°F)
Dewpoint: 13.0°C (55°F) [RH = 94%]
Pressure (altimeter): 30.00 inches Hg (1016.0 mb)
Winds: from the S (180 degrees) at 5 MPH (4 knots; 2.1 m/s)
Visibility: 3 miles ( 5 km)
Ceiling: 500 feet AGL
Clouds: scattered clouds at 200 feet AGL
overcast cloud deck at 500 feet AGL
Weather: BCFG BR  (patches of fog, mist)

 MAPA DO AEROPORTO

 INFORMAÇÕES DA PISTA
Pista 15 Tamanho da pista 5479 ft Largura da pista 98 ft
Elevação da pista 0 ft Ranhura da pista 0 ft Proa da pista 0
Pista 33 Tamanho da pista 5479 ft Largura da pista 98 ft
Elevação da pista 0 ft Ranhura da pista 0 ft Proa da pista 0

 FREQUÊNCIAS DO AEROPORTO
Tipo AFIS Nome CAXIAS RDO Frequência 131.6 MHZ

 AUXÍLIOS DE NAVEGAÇÃO PRÓXIMOS AO AEROPORTO
Tipo VOR-DME Nome Do Sul Frequência 112300 KHZ
Tipo NDB Nome Do Sul Frequência 169 KHZ